sensor_id;sensor_type;location;lat;lon;timestamp;pressure;altitude;pressure_sealevel;temperature;humidity
38038;BME280;23843;51.320;12.340;2023-02-13T05:31:58;102586.25;;;7.37;100.00
38038;BME280;23843;51.320;12.340;2023-02-13T05:34:26;102579.19;;;7.36;100.00
38038;BME280;23843;51.320;12.340;2023-02-13T05:36:53;102582.72;;;7.36;100.00
38038;BME280;23843;51.320;12.340;2023-02-13T05:39:19;102583.59;;;7.35;100.00
38038;BME280;23843;51.320;12.340;2023-02-13T05:41:45;102578.34;;;7.31;100.00
38038;BME280;23843;51.320;12.340;2023-02-13T05:44:11;102575.72;;;7.32;100.00
38038;BME280;23843;51.320;12.340;2023-02-13T05:46:39;102580.13;;;7.28;100.00
38038;BME280;23843;51.320;12.340;2023-02-13T05:49:07;102574.88;;;7.25;100.00
38038;BME280;23843;51.320;12.340;2023-02-13T05:51:34;102581.03;;;7.24;100.00
38038;BME280;23843;51.320;12.340;2023-02-13T05:53:59;102567.84;;;7.23;100.00
38038;BME280;23843;51.320;12.340;2023-02-13T05:56:25;102573.13;;;7.24;100.00
38038;BME280;23843;51.320;12.340;2023-02-13T05:58:51;102569.59;;;7.25;100.00
38038;BME280;23843;51.320;12.340;2023-02-13T06:01:17;102579.28;;;7.25;100.00
38038;BME280;23843;51.320;12.340;2023-02-13T06:03:42;102584.53;;;7.23;100.00
38038;BME280;23843;51.320;12.340;2023-02-13T06:06:09;102586.31;;;7.23;100.00
38038;BME280;23843;51.320;12.340;2023-02-13T06:08:35;102576.63;;;7.23;100.00
38038;BME280;23843;51.320;12.340;2023-02-13T06:11:02;102578.38;;;7.21;100.00
38038;BME280;23843;51.320;12.340;2023-02-13T06:13:27;102580.16;;;7.21;100.00
38038;BME280;23843;51.320;12.340;2023-02-13T06:15:53;102575.78;;;7.20;100.00
38038;BME280;23843;51.320;12.340;2023-02-13T06:18:19;102575.78;;;7.20;100.00
38038;BME280;23843;51.320;12.340;2023-02-13T06:20:44;102576.66;;;7.19;100.00
38038;BME280;23843;51.320;12.340;2023-02-13T06:23:11;102580.19;;;7.18;100.00
38038;BME280;23843;51.320;12.340;2023-02-13T06:25:39;102581.94;;;7.17;100.00
38038;BME280;23843;51.320;12.340;2023-02-13T06:28:06;102587.22;;;7.17;100.00
38038;BME280;23843;51.320;12.340;2023-02-13T06:30:32;102581.94;;;7.14;100.00
38038;BME280;23843;51.320;12.340;2023-02-13T06:32:58;102588.97;;;7.15;100.00
38038;BME280;23843;51.320;12.340;2023-02-13T06:35:24;102585.47;;;7.15;100.00
38038;BME280;23843;51.320;12.340;2023-02-13T06:37:49;102583.72;;;7.15;100.00
38038;BME280;23843;51.320;12.340;2023-02-13T06:40:17;102588.97;;;7.14;100.00
38038;BME280;23843;51.320;12.340;2023-02-13T06:42:44;102590.72;;;7.16;100.00
38038;BME280;23843;51.320;12.340;2023-02-13T06:45:11;102587.22;;;7.17;100.00
38038;BME280;23843;51.320;12.340;2023-02-13T06:47:40;102581.06;;;7.18;100.00
38038;BME280;23843;51.320;12.340;2023-02-13T06:50:07;102581.94;;;7.16;100.00
38038;BME280;23843;51.320;12.340;2023-02-13T06:52:33;102592.47;;;7.19;100.00
38038;BME280;23843;51.320;12.340;2023-02-13T06:54:59;102587.19;;;7.22;100.00
38038;BME280;23843;51.320;12.340;2023-02-13T06:57:26;102595.13;;;7.22;100.00
38038;BME280;23843;51.320;12.340;2023-02-13T06:59:52;102595.97;;;7.25;100.00
38038;BME280;23843;51.320;12.340;2023-02-13T07:02:18;102588.91;;;7.27;100.00
38038;BME280;23843;51.320;12.340;2023-02-13T07:04:45;102597.69;;;7.33;100.00
38038;BME280;23843;51.320;12.340;2023-02-13T07:07:11;102599.44;;;7.37;100.00
38038;BME280;23843;51.320;12.340;2023-02-13T07:09:37;102604.69;;;7.40;100.00
38038;BME280;23843;51.320;12.340;2023-02-13T07:12:02;102605.56;;;7.37;100.00
38038;BME280;23843;51.320;12.340;2023-02-13T07:14:29;102609.09;;;7.39;100.00
38038;BME280;23843;51.320;12.340;2023-02-13T07:16:55;102611.72;;;7.39;100.00
38038;BME280;23843;51.320;12.340;2023-02-13T07:19:21;102609.94;;;7.38;100.00
38038;BME280;23843;51.320;12.340;2023-02-13T07:21:47;102606.44;;;7.36;100.00
38038;BME280;23843;51.320;12.340;2023-02-13T07:24:14;102608.19;;;7.42;100.00
38038;BME280;23843;51.320;12.340;2023-02-13T07:26:41;102603.75;;;7.45;100.00
38038;BME280;23843;51.320;12.340;2023-02-13T07:29:07;102620.47;;;7.49;100.00
38038;BME280;23843;51.320;12.340;2023-02-13T07:31:36;102616.06;;;7.51;100.00
38038;BME280;23843;51.320;12.340;2023-02-13T07:34:02;102620.44;;;7.52;100.00
38038;BME280;23843;51.320;12.340;2023-02-13T07:36:28;102622.22;;;7.50;100.00
38038;BME280;23843;51.320;12.340;2023-02-13T07:38:53;102623.97;;;7.54;100.00
38038;BME280;23843;51.320;12.340;2023-02-13T07:41:19;102619.53;;;7.58;100.00
38038;BME280;23843;51.320;12.340;2023-02-13T07:43:45;102624.81;;;7.61;100.00
38038;BME280;23843;51.320;12.340;2023-02-13T07:46:10;102627.41;;;7.65;100.00
38038;BME280;23843;51.320;12.340;2023-02-13T07:48:37;102632.66;;;7.70;100.00
38038;BME280;23843;51.320;12.340;2023-02-13T07:51:04;102630.00;;;7.75;100.00
38038;BME280;23843;51.320;12.340;2023-02-13T07:53:30;102622.94;;;7.78;100.00
38038;BME280;23843;51.320;12.340;2023-02-13T07:55:57;102629.97;;;7.81;100.00
38038;BME280;23843;51.320;12.340;2023-02-13T07:58:23;102630.84;;;7.83;100.00
38038;BME280;23843;51.320;12.340;2023-02-13T08:00:49;102631.69;;;7.85;100.00
38038;BME280;23843;51.320;12.340;2023-02-13T08:03:15;102628.16;;;7.84;100.00
38038;BME280;23843;51.320;12.340;2023-02-13T08:05:46;102627.25;;;7.91;100.00
38038;BME280;23843;51.320;12.340;2023-02-13T08:08:12;102628.13;;;7.87;100.00
38038;BME280;23843;51.320;12.340;2023-02-13T08:10:39;102632.53;;;7.93;100.00
38038;BME280;23843;51.320;12.340;2023-02-13T08:13:06;102636.88;;;7.97;100.00
38038;BME280;23843;51.320;12.340;2023-02-13T08:15:32;102645.63;;;8.04;100.00
38038;BME280;23843;51.320;12.340;2023-02-13T08:17:58;102640.34;;;8.04;100.00
38038;BME280;23843;51.320;12.340;2023-02-13T08:20:25;102641.22;;;8.06;100.00
38038;BME280;23843;51.320;12.340;2023-02-13T08:22:52;102642.94;;;8.11;100.00
38038;BME280;23843;51.320;12.340;2023-02-13T08:25:19;102640.31;;;8.13;100.00
38038;BME280;23843;51.320;12.340;2023-02-13T08:27:46;102637.63;;;8.18;100.00
38038;BME280;23843;51.320;12.340;2023-02-13T08:30:13;102635.81;;;8.23;100.00
38038;BME280;23843;51.320;12.340;2023-02-13T08:32:39;102630.59;;;8.15;100.00
38038;BME280;23843;51.320;12.340;2023-02-13T08:35:05;102632.34;;;8.16;100.00
38038;BME280;23843;51.320;12.340;2023-02-13T08:37:36;102632.34;;;8.18;100.00
38038;BME280;23843;51.320;12.340;2023-02-13T08:40:03;102630.56;;;8.20;100.00
38038;BME280;23843;51.320;12.340;2023-02-13T08:42:29;102634.13;;;8.17;100.00
38038;BME280;23843;51.320;12.340;2023-02-13T08:44:55;102641.22;;;8.04;100.00
38038;BME280;23843;51.320;12.340;2023-02-13T08:47:20;102637.66;;;8.11;100.00
38038;BME280;23843;51.320;12.340;2023-02-13T08:49:46;102639.38;;;8.19;100.00
38038;BME280;23843;51.320;12.340;2023-02-13T08:52:12;102639.41;;;8.17;100.00
38038;BME280;23843;51.320;12.340;2023-02-13T08:54:38;102643.84;;;8.10;100.00
38038;BME280;23843;51.320;12.340;2023-02-13T08:57:06;102649.09;;;8.12;100.00
38038;BME280;23843;51.320;12.340;2023-02-13T08:59:32;102639.41;;;8.17;100.00
38038;BME280;23843;51.320;12.340;2023-02-13T09:01:57;102637.69;;;8.10;100.00
38038;BME280;23843;51.320;12.340;2023-02-13T09:04:23;102632.34;;;8.18;100.00
38038;BME280;23843;51.320;12.340;2023-02-13T09:06:49;102641.97;;;8.23;100.00
38038;BME280;23843;51.320;12.340;2023-02-13T09:09:15;102647.28;;;8.19;100.00
38038;BME280;23843;51.320;12.340;2023-02-13T09:11:41;102643.72;;;8.27;100.00
38038;BME280;23843;51.320;12.340;2023-02-13T09:14:09;102640.19;;;8.25;100.00
38038;BME280;23843;51.320;12.340;2023-02-13T09:16:34;102649.94;;;8.19;100.00
38038;BME280;23843;51.320;12.340;2023-02-13T09:19:01;102646.41;;;8.20;100.00
38038;BME280;23843;51.320;12.340;2023-02-13T09:21:27;102644.63;;;8.22;100.00
38038;BME280;23843;51.320;12.340;2023-02-13T09:23:52;102649.91;;;8.25;100.00
38038;BME280;23843;51.320;12.340;2023-02-13T09:26:18;102649.97;;;8.17;100.00
38038;BME280;23843;51.320;12.340;2023-02-13T09:28:44;102649.94;;;8.19;100.00
38038;BME280;23843;51.320;12.340;2023-02-13T09:31:13;102650.75;;;8.25;100.00
38038;BME280;23843;51.320;12.340;2023-02-13T09:33:38;102648.97;;;8.29;100.00
38038;BME280;23843;51.320;12.340;2023-02-13T09:36:04;102651.69;;;8.20;100.00
38038;BME280;23843;51.320;12.340;2023-02-13T09:38:31;102653.47;;;8.18;100.00
38038;BME280;23843;51.320;12.340;2023-02-13T09:40:59;102651.69;;;8.20;100.00
38038;BME280;23843;51.320;12.340;2023-02-13T09:43:28;102647.22;;;8.29;100.00
38038;BME280;23843;51.320;12.340;2023-02-13T09:45:57;102647.22;;;8.26;100.00
38038;BME280;23843;51.320;12.340;2023-02-13T09:48:28;102654.19;;;8.38;100.00
38038;BME280;23843;51.320;12.340;2023-02-13T09:50:54;102658.59;;;8.39;100.00
38038;BME280;23843;51.320;12.340;2023-02-13T09:53:22;102662.97;;;8.43;100.00
38038;BME280;23843;51.320;12.340;2023-02-13T09:55:57;102660.28;;;8.49;100.00
38038;BME280;23843;51.320;12.340;2023-02-13T09:58:35;102669.09;;;8.51;100.00
38038;BME280;23843;51.320;12.340;2023-02-13T10:01:08;102661.22;;;8.44;100.00
38038;BME280;23843;51.320;12.340;2023-02-13T10:03:43;102657.69;;;8.46;100.00
38038;BME280;23843;51.320;12.340;2023-02-13T10:06:14;102662.91;;;8.51;100.00
38038;BME280;23843;51.320;12.340;2023-02-13T10:09:00;102659.38;;;8.53;100.00
38038;BME280;23843;51.320;12.340;2023-02-13T10:11:50;102653.16;;;8.57;100.00
38038;BME280;23843;51.320;12.340;2023-02-13T10:14:22;102661.09;;;8.57;100.00
38038;BME280;23843;51.320;12.340;2023-02-13T10:16:54;102649.66;;;8.55;100.00
38038;BME280;23843;51.320;12.340;2023-02-13T10:19:39;102648.81;;;8.52;100.00
38038;BME280;23843;51.320;12.340;2023-02-13T10:22:12;102648.75;;;8.61;100.00
38038;BME280;23843;51.320;12.340;2023-02-13T10:24:43;102639.91;;;8.61;100.00
38038;BME280;23843;51.320;12.340;2023-02-13T10:27:18;102633.72;;;8.65;100.00
38038;BME280;23843;51.320;12.340;2023-02-13T10:29:47;102637.22;;;8.67;100.00
38038;BME280;23843;51.320;12.340;2023-02-13T10:32:18;102636.38;;;8.65;100.00
38038;BME280;23843;51.320;12.340;2023-02-13T10:34:48;102637.28;;;8.62;100.00
38038;BME280;23843;51.320;12.340;2023-02-13T10:37:18;102643.31;;;8.78;100.00
38038;BME280;23843;51.320;12.340;2023-02-13T10:39:46;102637.94;;;8.84;100.00
38038;BME280;23843;51.320;12.340;2023-02-13T10:42:20;102637.03;;;8.88;100.00
38038;BME280;23843;51.320;12.340;2023-02-13T10:44:53;102632.66;;;8.86;100.00
38038;BME280;23843;51.320;12.340;2023-02-13T10:47:34;102631.75;;;8.88;100.00
38038;BME280;23843;51.320;12.340;2023-02-13T10:50:15;102622.94;;;8.86;100.00
38038;BME280;23843;51.320;12.340;2023-02-13T10:52:50;102621.16;;;8.88;100.00
38038;BME280;23843;51.320;12.340;2023-02-13T10:55:50;102623.69;;;8.99;100.00
38038;BME280;23843;51.320;12.340;2023-02-13T10:58:21;102613.19;;;8.93;100.00
38038;BME280;23843;51.320;12.340;2023-02-13T11:00:55;102607.78;;;9.02;100.00
38038;BME280;23843;51.320;12.340;2023-02-13T11:03:24;102606.03;;;9.03;100.00
38038;BME280;23843;51.320;12.340;2023-02-13T11:05:52;102606.91;;;9.03;100.00
38038;BME280;23843;51.320;12.340;2023-02-13T11:08:21;102599.91;;;8.97;100.00
38038;BME280;23843;51.320;12.340;2023-02-13T11:10:47;102602.53;;;9.00;100.00
38038;BME280;23843;51.320;12.340;2023-02-13T11:13:17;102598.97;;;9.02;100.00
38038;BME280;23843;51.320;12.340;2023-02-13T11:15:56;102598.97;;;9.03;100.00
38038;BME280;23843;51.320;12.340;2023-02-13T11:18:22;102599.06;;;8.94;100.00
38038;BME280;23843;51.320;12.340;2023-02-13T11:20:58;102597.34;;;8.90;100.00
38038;BME280;23843;51.320;12.340;2023-02-13T11:23:34;102599.94;;;8.94;100.00
38038;BME280;23843;51.320;12.340;2023-02-13T11:26:03;102602.66;;;8.88;100.00
38038;BME280;23843;51.320;12.340;2023-02-13T11:28:32;102595.50;;;8.98;100.00
38038;BME280;23843;51.320;12.340;2023-02-13T11:31:24;102595.38;;;9.09;100.00
38038;BME280;23843;51.320;12.340;2023-02-13T11:33:50;102590.06;;;9.10;100.00
38038;BME280;23843;51.320;12.340;2023-02-13T11:36:24;102588.19;;;9.18;100.00
38038;BME280;23843;51.320;12.340;2023-02-13T11:38:59;102587.47;;;9.06;100.00
38038;BME280;23843;51.320;12.340;2023-02-13T11:41:25;102588.41;;;9.02;100.00
38038;BME280;23843;51.320;12.340;2023-02-13T11:43:55;102584.00;;;9.00;100.00
38038;BME280;23843;51.320;12.340;2023-02-13T11:46:25;102591.00;;;9.06;100.00
38038;BME280;23843;51.320;12.340;2023-02-13T11:48:59;102583.91;;;9.10;100.00
38038;BME280;23843;51.320;12.340;2023-02-13T11:51:39;102579.44;;;9.12;100.00
38038;BME280;23843;51.320;12.340;2023-02-13T11:54:05;102584.63;;;9.21;100.00
38038;BME280;23843;51.320;12.340;2023-02-13T11:56:47;102577.34;;;9.38;100.00
38038;BME280;23843;51.320;12.340;2023-02-13T11:59:13;102573.84;;;9.38;100.00
38038;BME280;23843;51.320;12.340;2023-02-13T12:01:39;102578.19;;;9.42;100.00
38038;BME280;23843;51.320;12.340;2023-02-13T12:04:12;102576.38;;;9.46;100.00
38038;BME280;23843;51.320;12.340;2023-02-13T12:06:39;102576.44;;;9.41;100.00
38038;BME280;23843;51.320;12.340;2023-02-13T12:09:10;102581.81;;;9.33;100.00
38038;BME280;23843;51.320;12.340;2023-02-13T12:11:41;102584.47;;;9.35;100.00
38038;BME280;23843;51.320;12.340;2023-02-13T12:14:10;102588.78;;;9.40;100.00
38038;BME280;23843;51.320;12.340;2023-02-13T12:16:40;102582.56;;;9.43;100.00
38038;BME280;23843;51.320;12.340;2023-02-13T12:19:12;102585.22;;;9.46;100.00
38038;BME280;23843;51.320;12.340;2023-02-13T12:24:50;102574.53;;;9.51;100.00
38038;BME280;23843;51.320;12.340;2023-02-13T12:27:27;102578.88;;;9.56;100.00
38038;BME280;23843;51.320;12.340;2023-02-13T12:30:17;102569.25;;;9.51;100.00
38038;BME280;23843;51.320;12.340;2023-02-13T12:32:58;102569.38;;;9.41;100.00
38038;BME280;23843;51.320;12.340;2023-02-13T12:35:41;102564.13;;;9.38;100.00
38038;BME280;23843;51.320;12.340;2023-02-13T12:38:19;102555.34;;;9.36;100.00
38038;BME280;23843;51.320;12.340;2023-02-13T12:40:57;102553.59;;;9.35;100.00
38038;BME280;23843;51.320;12.340;2023-02-13T12:43:40;102551.81;;;9.36;100.00
38038;BME280;23843;51.320;12.340;2023-02-13T12:46:16;102551.84;;;9.34;100.00
38038;BME280;23843;51.320;12.340;2023-02-13T12:51:30;102548.25;;;9.40;100.00
38038;BME280;23843;51.320;12.340;2023-02-13T12:54:15;102546.47;;;9.40;100.00
38038;BME280;23843;51.320;12.340;2023-02-13T12:56:55;102538.44;;;9.47;100.00
38038;BME280;23843;51.320;12.340;2023-02-13T12:59:31;102538.59;;;9.36;100.00
38038;BME280;23843;51.320;12.340;2023-02-13T13:02:24;102545.75;;;9.28;100.00
38038;BME280;23843;51.320;12.340;2023-02-13T13:05:05;102536.00;;;9.31;100.00
38038;BME280;23843;51.320;12.340;2023-02-13T13:07:45;102540.53;;;9.25;100.00
38038;BME280;23843;51.320;12.340;2023-02-13T13:10:39;102533.44;;;9.27;100.00
38038;BME280;23843;51.320;12.340;2023-02-13T13:13:16;102537.78;;;9.32;100.00
38038;BME280;23843;51.320;12.340;2023-02-13T13:15:52;102529.03;;;9.27;100.00
38038;BME280;23843;51.320;12.340;2023-02-13T13:18:27;102527.31;;;9.23;100.00
38038;BME280;23843;51.320;12.340;2023-02-13T13:21:09;102531.78;;;9.18;100.00
38038;BME280;23843;51.320;12.340;2023-02-13T13:23:43;102537.06;;;9.18;100.00
38038;BME280;23843;51.320;12.340;2023-02-13T13:26:18;102536.28;;;9.13;100.00
38038;BME280;23843;51.320;12.340;2023-02-13T13:28:47;102535.50;;;9.05;100.00
38038;BME280;23843;51.320;12.340;2023-02-13T13:31:14;102537.19;;;9.09;100.00
38038;BME280;23843;51.320;12.340;2023-02-13T13:33:42;102530.97;;;9.13;100.00
38038;BME280;23843;51.320;12.340;2023-02-13T13:36:15;102531.94;;;9.07;100.00
38038;BME280;23843;51.320;12.340;2023-02-13T13:38:56;102531.03;;;9.10;100.00
38038;BME280;23843;51.320;12.340;2023-02-13T13:41:34;102527.47;;;9.11;100.00
38038;BME280;23843;51.320;12.340;2023-02-13T13:44:17;102523.03;;;9.13;100.00
38038;BME280;23843;51.320;12.340;2023-02-13T13:46:51;102528.34;;;9.11;100.00
38038;BME280;23843;51.320;12.340;2023-02-13T13:49:30;102522.41;;;8.92;100.00
38038;BME280;23843;51.320;12.340;2023-02-13T13:54:36;102522.41;;;8.95;100.00
38038;BME280;23843;51.320;12.340;2023-02-13T13:57:07;102517.88;;;9.04;100.00
38038;BME280;23843;51.320;12.340;2023-02-13T13:59:57;102518.78;;;8.99;100.00
38038;BME280;23843;51.320;12.340;2023-02-13T14:02:41;102525.91;;;8.97;100.00
38038;BME280;23843;51.320;12.340;2023-02-13T14:05:26;102525.03;;;8.95;100.00
38038;BME280;23843;51.320;12.340;2023-02-13T14:07:54;102527.75;;;8.89;100.00
38038;BME280;23843;51.320;12.340;2023-02-13T14:10:58;102526.06;;;8.85;100.00
38038;BME280;23843;51.320;12.340;2023-02-13T14:13:31;102528.69;;;8.85;100.00
38038;BME280;23843;51.320;12.340;2023-02-13T14:15:57;102526.09;;;8.81;100.00
38038;BME280;23843;51.320;12.340;2023-02-13T14:18:23;102529.66;;;8.75;100.00
38038;BME280;23843;51.320;12.340;2023-02-13T14:20:51;102520.16;;;8.60;100.00
38038;BME280;23843;51.320;12.340;2023-02-13T14:23:30;102523.66;;;8.64;100.00
38038;BME280;23843;51.320;12.340;2023-02-13T14:26:12;102526.28;;;8.64;100.00
38038;BME280;23843;51.320;12.340;2023-02-13T14:28:56;102520.06;;;8.68;100.00
38038;BME280;23843;51.320;12.340;2023-02-13T14:31:26;102515.66;;;8.70;100.00
38038;BME280;23843;51.320;12.340;2023-02-13T14:33:55;102524.53;;;8.66;100.00
38038;BME280;23843;51.320;12.340;2023-02-13T14:36:26;102522.69;;;8.69;100.00
38038;BME280;23843;51.320;12.340;2023-02-13T14:38:56;102518.28;;;8.70;100.00
38038;BME280;23843;51.320;12.340;2023-02-13T14:41:55;102523.56;;;8.71;100.00
38038;BME280;23843;51.320;12.340;2023-02-13T14:44:33;102520.00;;;8.72;100.00
38038;BME280;23843;51.320;12.340;2023-02-13T14:47:02;102517.38;;;8.72;100.00
38038;BME280;23843;51.320;12.340;2023-02-13T14:49:31;102521.78;;;8.70;100.00
38038;BME280;23843;51.320;12.340;2023-02-13T14:52:01;102521.84;;;8.69;100.00
38038;BME280;23843;51.320;12.340;2023-02-13T14:54:30;102528.88;;;8.68;100.00
38038;BME280;23843;51.320;12.340;2023-02-13T14:57:05;102524.53;;;8.66;100.00
38038;BME280;23843;51.320;12.340;2023-02-13T14:59:35;102518.31;;;8.67;100.00
38038;BME280;23843;51.320;12.340;2023-02-13T15:02:14;102517.47;;;8.65;100.00
38038;BME280;23843;51.320;12.340;2023-02-13T15:05:02;102514.78;;;8.69;100.00
38038;BME280;23843;51.320;12.340;2023-02-13T15:07:32;102511.31;;;8.66;100.00
38038;BME280;23843;51.320;12.340;2023-02-13T15:10:02;102501.66;;;8.62;100.00
38038;BME280;23843;51.320;12.340;2023-02-13T15:12:31;102501.66;;;8.62;100.00
38038;BME280;23843;51.320;12.340;2023-02-13T15:15:00;102499.06;;;8.55;100.00
38038;BME280;23843;51.320;12.340;2023-02-13T15:17:28;102499.09;;;8.54;100.00
38038;BME280;23843;51.320;12.340;2023-02-13T15:20:03;102497.38;;;8.51;100.00
38038;BME280;23843;51.320;12.340;2023-02-13T15:22:33;102490.28;;;8.55;100.00
38038;BME280;23843;51.320;12.340;2023-02-13T15:25:01;102477.06;;;8.56;100.00
38038;BME280;23843;51.320;12.340;2023-02-13T15:27:30;102482.31;;;8.60;100.00
38038;BME280;23843;51.320;12.340;2023-02-13T15:30:00;102484.16;;;8.51;100.00
38038;BME280;23843;51.320;12.340;2023-02-13T15:32:30;102493.88;;;8.48;100.00
38038;BME280;23843;51.320;12.340;2023-02-13T15:34:56;102489.50;;;8.45;100.00
38038;BME280;23843;51.320;12.340;2023-02-13T15:37:24;102490.38;;;8.46;100.00
38038;BME280;23843;51.320;12.340;2023-02-13T15:39:50;102481.56;;;8.47;100.00
38038;BME280;23843;51.320;12.340;2023-02-13T15:42:18;102472.78;;;8.45;100.00
38038;BME280;23843;51.320;12.340;2023-02-13T15:44:46;102467.56;;;8.37;100.00
38038;BME280;23843;51.320;12.340;2023-02-13T15:47:17;102465.84;;;8.31;100.00
38038;BME280;23843;51.320;12.340;2023-02-13T15:49:48;102466.75;;;8.29;100.00
38038;BME280;23843;51.320;12.340;2023-02-13T15:52:19;102478.22;;;8.29;100.00
38038;BME280;23843;51.320;12.340;2023-02-13T15:54:50;102475.66;;;8.19;100.00
38038;BME280;23843;51.320;12.340;2023-02-13T15:57:16;102473.06;;;8.15;100.00
38038;BME280;23843;51.320;12.340;2023-02-13T15:59:42;102468.69;;;8.14;100.00
38038;BME280;23843;51.320;12.340;2023-02-13T16:02:11;102463.41;;;8.11;100.00
38038;BME280;23843;51.320;12.340;2023-02-13T16:04:40;102462.56;;;8.09;100.00
38038;BME280;23843;51.320;12.340;2023-02-13T16:07:09;102458.19;;;8.08;100.00
38038;BME280;23843;51.320;12.340;2023-02-13T16:09:37;102456.47;;;8.01;100.00
38038;BME280;23843;51.320;12.340;2023-02-13T16:12:04;102455.63;;;8.02;100.00
38038;BME280;23843;51.320;12.340;2023-02-13T16:14:34;102454.75;;;7.97;100.00
38038;BME280;23843;51.320;12.340;2023-02-13T16:17:02;102449.50;;;7.96;100.00
38038;BME280;23843;51.320;12.340;2023-02-13T16:19:35;102447.75;;;7.94;100.00
38038;BME280;23843;51.320;12.340;2023-02-13T16:22:17;102442.53;;;7.87;100.00
38038;BME280;23843;51.320;12.340;2023-02-13T16:24:48;102455.78;;;7.85;100.00
38038;BME280;23843;51.320;12.340;2023-02-13T16:27:15;102459.31;;;7.81;100.00
38038;BME280;23843;51.320;12.340;2023-02-13T16:29:46;102461.06;;;7.82;100.00
38038;BME280;23843;51.320;12.340;2023-02-13T16:32:20;102458.41;;;7.84;100.00
38038;BME280;23843;51.320;12.340;2023-02-13T16:34:49;102456.69;;;7.81;100.00
38038;BME280;23843;51.320;12.340;2023-02-13T16:37:31;102466.38;;;7.78;100.00
38038;BME280;23843;51.320;12.340;2023-02-13T16:49:14;102469.94;;;7.72;100.00
38038;BME280;23843;51.320;12.340;2023-02-13T16:51:42;102472.63;;;7.67;100.00
38038;BME280;23843;51.320;12.340;2023-02-13T16:54:20;102473.47;;;7.68;100.00
38038;BME280;23843;51.320;12.340;2023-02-13T16:56:50;102478.78;;;7.66;100.00
38038;BME280;23843;51.320;12.340;2023-02-13T16:59:27;102477.91;;;7.67;100.00
38038;BME280;23843;51.320;12.340;2023-02-13T17:02:15;102484.06;;;7.66;100.00
38038;BME280;23843;51.320;12.340;2023-02-13T17:04:42;102486.72;;;7.66;100.00
38038;BME280;23843;51.320;12.340;2023-02-13T17:07:11;102486.72;;;7.66;100.00
38038;BME280;23843;51.320;12.340;2023-02-13T17:09:38;102494.63;;;7.66;100.00
38038;BME280;23843;51.320;12.340;2023-02-13T17:12:11;102499.00;;;7.67;100.00
38038;BME280;23843;51.320;12.340;2023-02-13T17:14:37;102506.03;;;7.65;100.00
38038;BME280;23843;51.320;12.340;2023-02-13T17:17:09;102506.09;;;7.61;100.00
38038;BME280;23843;51.320;12.340;2023-02-13T17:19:35;102500.81;;;7.59;100.00
38038;BME280;23843;51.320;12.340;2023-02-13T17:22:04;102502.59;;;7.57;100.00
38038;BME280;23843;51.320;12.340;2023-02-13T17:24:31;102499.09;;;7.55;100.00
38038;BME280;23843;51.320;12.340;2023-02-13T17:26:59;102499.97;;;7.56;100.00
38038;BME280;23843;51.320;12.340;2023-02-13T17:29:25;102500.84;;;7.53;100.00
38038;BME280;23843;51.320;12.340;2023-02-13T17:31:53;102494.75;;;7.51;100.00
38038;BME280;23843;51.320;12.340;2023-02-13T17:34:19;102499.16;;;7.49;100.00
38038;BME280;23843;51.320;12.340;2023-02-13T17:36:45;102507.06;;;7.47;100.00
38038;BME280;23843;51.320;12.340;2023-02-13T17:39:11;102502.69;;;7.46;100.00
38038;BME280;23843;51.320;12.340;2023-02-13T17:41:36;102497.41;;;7.45;100.00
38038;BME280;23843;51.320;12.340;2023-02-13T17:44:04;102489.50;;;7.43;100.00
38038;BME280;23843;51.320;12.340;2023-02-13T17:46:29;102482.47;;;7.41;100.00
38038;BME280;23843;51.320;12.340;2023-02-13T17:48:55;102477.25;;;7.38;100.00
38038;BME280;23843;51.320;12.340;2023-02-13T17:51:20;102478.13;;;7.37;100.00
38038;BME280;23843;51.320;12.340;2023-02-13T17:53:46;102478.16;;;7.31;100.00
38038;BME280;23843;51.320;12.340;2023-02-13T17:56:12;102470.28;;;7.27;100.00
38038;BME280;23843;51.320;12.340;2023-02-13T17:58:39;102472.06;;;7.22;100.00
38038;BME280;23843;51.320;12.340;2023-02-13T18:01:07;102480.88;;;7.18;100.00
38038;BME280;23843;51.320;12.340;2023-02-13T18:03:34;102480.88;;;7.17;100.00
38038;BME280;23843;51.320;12.340;2023-02-13T18:06:00;102476.53;;;7.11;100.00
38038;BME280;23843;51.320;12.340;2023-02-13T18:08:27;102486.22;;;7.07;100.00
38038;BME280;23843;51.320;12.340;2023-02-13T18:10:53;102487.13;;;7.05;100.00
38038;BME280;23843;51.320;12.340;2023-02-13T18:13:19;102486.25;;;6.98;100.00
38038;BME280;23843;51.320;12.340;2023-02-13T18:15:44;102481.91;;;6.93;100.00
38038;BME280;23843;51.320;12.340;2023-02-13T18:18:13;102480.13;;;6.92;100.00
38038;BME280;23843;51.320;12.340;2023-02-13T18:20:40;102476.66;;;6.85;100.00
38038;BME280;23843;51.320;12.340;2023-02-13T18:23:10;102481.97;;;6.79;100.00
38038;BME280;23843;51.320;12.340;2023-02-13T18:25:37;102475.84;;;6.74;100.00
38038;BME280;23843;51.320;12.340;2023-02-13T18:28:03;102483.78;;;6.66;100.00
38038;BME280;23843;51.320;12.340;2023-02-13T18:30:30;102482.91;;;6.59;100.00
38038;BME280;23843;51.320;12.340;2023-02-13T18:32:55;102485.56;;;6.55;100.00
38038;BME280;23843;51.320;12.340;2023-02-13T18:35:24;102482.06;;;6.51;100.00
38038;BME280;23843;51.320;12.340;2023-02-13T18:37:50;102489.09;;;6.43;100.00
38038;BME280;23843;51.320;12.340;2023-02-13T18:40:16;102478.59;;;6.37;100.00
38038;BME280;23843;51.320;12.340;2023-02-13T18:42:42;102478.63;;;6.32;100.00
38038;BME280;23843;51.320;12.340;2023-02-13T18:45:09;102478.63;;;6.23;100.00